createdAt,value
2023-05-12T00:00:33.741Z,11.10
2023-05-12T00:03:12.822Z,10.00
2023-05-12T00:05:41.056Z,10.60
2023-05-12T00:08:09.216Z,8.40
2023-05-12T00:10:37.391Z,11.40
2023-05-12T00:13:05.765Z,8.30
2023-05-12T00:15:33.852Z,9.10
2023-05-12T00:18:02.036Z,9.50
2023-05-12T00:20:30.193Z,9.70
2023-05-12T00:22:58.359Z,13.10
2023-05-12T00:25:26.539Z,9.90
2023-05-12T00:27:54.819Z,10.60
2023-05-12T00:30:22.985Z,8.40
2023-05-12T00:32:51.752Z,10.20
2023-05-12T00:35:19.953Z,9.50
2023-05-12T00:37:48.127Z,11.50
2023-05-12T00:40:16.411Z,9.90
2023-05-12T00:42:44.778Z,12.20
2023-05-12T00:45:13.060Z,8.90
2023-05-12T00:47:41.705Z,8.40
2023-05-12T00:50:11.068Z,10.30
2023-05-12T00:52:39.219Z,9.40
2023-05-12T00:55:08.217Z,10.40
2023-05-12T00:57:36.796Z,9.10
2023-05-12T01:00:07.575Z,9.20
2023-05-12T01:02:36.720Z,14.10
2023-05-12T01:05:05.927Z,15.40
2023-05-12T01:07:34.312Z,11.30
2023-05-12T01:10:02.795Z,11.80
2023-05-12T01:12:34.861Z,10.80
2023-05-12T01:15:04.368Z,11.30
2023-05-12T01:17:35.209Z,9.00
2023-05-12T01:20:07.112Z,9.20
2023-05-12T01:22:37.687Z,9.60
2023-05-12T01:25:10.102Z,14.00
2023-05-12T01:27:40.986Z,13.80
2023-05-12T01:30:12.932Z,9.10
2023-05-12T01:32:42.694Z,8.40
2023-05-12T01:35:11.680Z,7.80
2023-05-12T01:37:43.635Z,10.10
2023-05-12T01:40:12.523Z,8.40
2023-05-12T01:42:42.752Z,9.50
2023-05-12T01:45:12.444Z,9.90
2023-05-12T01:47:40.974Z,11.50
2023-05-12T01:50:10.855Z,9.70
2023-05-12T01:52:39.426Z,9.20
2023-05-12T01:55:11.494Z,8.50
2023-05-12T01:57:46.527Z,9.70
2023-05-12T02:00:15.415Z,9.40
2023-05-12T02:02:43.568Z,8.80
2023-05-12T02:05:13.505Z,11.90
2023-05-12T02:07:42.709Z,10.10
2023-05-12T02:10:11.332Z,9.30
2023-05-12T02:12:39.568Z,8.50
2023-05-12T02:15:08.463Z,8.80
2023-05-12T02:17:38.303Z,10.50
2023-05-12T02:20:07.677Z,9.40
2023-05-12T02:22:35.685Z,10.90
2023-05-12T02:25:04.634Z,9.70
2023-05-12T02:27:32.806Z,9.20
2023-05-12T02:30:01.496Z,7.30
2023-05-12T02:32:29.950Z,7.70
2023-05-12T02:34:58.256Z,7.40
2023-05-12T02:37:26.934Z,8.40
2023-05-12T02:39:55.109Z,10.60
2023-05-12T02:42:23.288Z,8.80
2023-05-12T02:44:51.355Z,9.00
2023-05-12T02:47:19.537Z,7.80
2023-05-12T02:49:47.603Z,8.30
2023-05-12T02:52:15.883Z,7.40
2023-05-12T02:54:44.098Z,7.90
2023-05-12T02:57:12.431Z,10.40
2023-05-12T02:59:40.933Z,9.00
2023-05-12T03:02:09.355Z,9.80
2023-05-12T03:04:37.675Z,9.90
2023-05-12T03:07:07.367Z,9.50
2023-05-12T03:09:36.183Z,8.20
2023-05-12T03:12:04.979Z,8.40
2023-05-12T03:14:33.555Z,10.40
2023-05-12T03:17:01.764Z,9.50
2023-05-12T03:19:30.109Z,9.40
2023-05-12T03:21:58.278Z,8.70
2023-05-12T03:24:26.967Z,8.30
2023-05-12T03:26:55.656Z,7.60
2023-05-12T03:29:24.838Z,12.10
2023-05-12T03:31:53.400Z,8.80
2023-05-12T03:34:22.110Z,8.70
2023-05-12T03:36:50.292Z,9.20
2023-05-12T03:39:18.571Z,8.70
2023-05-12T03:41:46.861Z,8.40
2023-05-12T03:44:14.891Z,9.20
2023-05-12T03:46:43.056Z,10.10
2023-05-12T03:49:11.568Z,12.50
2023-05-12T03:51:40.368Z,8.60
2023-05-12T03:54:08.841Z,10.10
2023-05-12T03:56:37.145Z,8.60
2023-05-12T03:59:05.293Z,7.90
2023-05-12T04:01:34.617Z,8.00
2023-05-12T04:04:03.014Z,7.00
2023-05-12T04:06:31.971Z,7.60
2023-05-12T04:09:00.048Z,9.20
2023-05-12T04:11:28.307Z,7.30
2023-05-12T04:13:57.101Z,9.00
2023-05-12T04:16:25.316Z,7.30
2023-05-12T04:18:53.623Z,8.90
2023-05-12T04:21:21.821Z,8.60
2023-05-12T04:23:53.177Z,10.30
2023-05-12T04:26:22.296Z,6.50
2023-05-12T04:28:50.458Z,6.20
2023-05-12T04:31:18.546Z,8.50
2023-05-12T04:33:48.381Z,9.40
2023-05-12T04:36:16.914Z,8.10
2023-05-12T04:38:45.298Z,7.40
2023-05-12T04:41:13.603Z,10.40
2023-05-12T04:46:13.428Z,6.40
2023-05-12T04:48:43.450Z,8.10
2023-05-12T04:51:11.616Z,6.60
2023-05-12T04:53:39.775Z,8.50
2023-05-12T04:56:08.358Z,7.60
2023-05-12T04:58:39.396Z,5.90
2023-05-12T05:01:08.549Z,9.90
2023-05-12T05:03:37.074Z,8.00
2023-05-12T05:06:05.662Z,6.90
2023-05-12T05:08:34.556Z,7.30
2023-05-12T05:11:02.743Z,5.60
2023-05-12T05:16:00.567Z,8.60
2023-05-12T05:18:29.538Z,6.20
2023-05-12T05:20:59.070Z,6.20
2023-05-12T05:23:27.811Z,5.20
2023-05-12T05:25:56.884Z,7.20
2023-05-12T05:28:26.717Z,5.90
2023-05-12T05:30:57.180Z,5.50
2023-05-12T05:35:53.551Z,6.70
2023-05-12T05:38:22.670Z,6.50
2023-05-12T05:40:54.107Z,5.70
2023-05-12T05:43:24.473Z,6.10
2023-05-12T05:45:53.152Z,5.00
2023-05-12T05:48:23.042Z,4.30
2023-05-12T05:50:52.250Z,7.60
2023-05-12T05:53:23.421Z,4.60
2023-05-12T05:55:52.380Z,5.20
2023-05-12T05:58:20.597Z,6.70
2023-05-12T06:00:50.063Z,5.60
2023-05-12T06:03:18.530Z,5.60
2023-05-12T06:06:09.553Z,4.90
2023-05-12T06:08:39.792Z,6.10
2023-05-12T06:11:08.335Z,6.60
2023-05-12T06:13:36.739Z,8.30
2023-05-12T06:16:05.887Z,8.80
2023-05-12T06:18:39.881Z,5.40
2023-05-12T06:21:08.460Z,5.70
2023-05-12T06:23:36.822Z,4.50
2023-05-12T06:26:07.869Z,7.00
2023-05-12T06:28:36.120Z,7.40
2023-05-12T06:31:08.906Z,5.00
2023-05-12T06:33:37.116Z,4.50
2023-05-12T06:36:06.180Z,3.50
2023-05-12T06:38:34.408Z,6.20
2023-05-12T06:41:02.734Z,3.70
2023-05-12T06:43:30.924Z,4.70
2023-05-12T06:45:59.252Z,4.50
2023-05-12T06:48:27.596Z,5.30
2023-05-12T06:50:57.475Z,4.60
2023-05-12T06:53:30.070Z,7.00
2023-05-12T06:55:58.330Z,3.70
2023-05-12T06:58:26.500Z,4.10
2023-05-12T07:00:54.580Z,4.50
2023-05-12T07:03:23.327Z,4.70
2023-05-12T07:05:52.293Z,4.80
2023-05-12T07:08:20.530Z,5.70
2023-05-12T07:10:48.706Z,6.20
2023-05-12T07:13:16.932Z,4.40
2023-05-12T07:15:45.186Z,8.40
2023-05-12T07:18:13.940Z,9.40
2023-05-12T07:20:42.125Z,6.20
2023-05-12T07:23:10.148Z,5.00
2023-05-12T07:25:38.942Z,5.00
2023-05-12T07:28:07.261Z,6.00
2023-05-12T07:30:36.153Z,5.10
2023-05-12T07:33:04.878Z,5.10
2023-05-12T07:35:33.009Z,4.20
2023-05-12T07:38:03.443Z,7.80
2023-05-12T07:40:31.712Z,4.40
2023-05-12T07:42:59.908Z,8.60
2023-05-12T07:45:28.477Z,5.10
2023-05-12T07:47:58.396Z,4.40
2023-05-12T07:50:27.069Z,4.40
2023-05-12T07:52:55.549Z,8.50
2023-05-12T07:55:23.839Z,7.20
2023-05-12T07:57:52.313Z,6.60
2023-05-12T08:00:21.105Z,6.20
2023-05-12T08:02:49.404Z,5.50
2023-05-12T08:05:18.203Z,6.50
2023-05-12T08:07:47.521Z,6.10
2023-05-12T08:10:15.608Z,3.70
2023-05-12T08:12:44.225Z,5.00
2023-05-12T08:15:12.909Z,6.50
2023-05-12T08:17:41.341Z,5.90
2023-05-12T08:20:10.993Z,4.90
2023-05-12T08:22:40.179Z,3.90
2023-05-12T08:25:11.640Z,7.70
2023-05-12T08:27:41.266Z,4.50
2023-05-12T08:30:10.164Z,11.00
2023-05-12T08:32:38.826Z,5.50
2023-05-12T08:35:06.934Z,4.10
2023-05-12T08:37:35.274Z,5.30
2023-05-12T08:40:08.792Z,6.20
2023-05-12T08:42:47.063Z,4.20
2023-05-12T08:45:15.875Z,3.50
2023-05-12T08:47:46.161Z,7.00
2023-05-12T08:50:17.553Z,7.70
2023-05-12T08:52:45.796Z,4.10
2023-05-12T08:55:14.822Z,5.60
2023-05-12T08:57:45.880Z,6.10
2023-05-12T09:00:15.492Z,4.90
2023-05-12T09:02:53.301Z,5.60
2023-05-12T09:05:23.345Z,7.60
2023-05-12T09:07:53.694Z,5.70
2023-05-12T09:13:02.557Z,5.20
2023-05-12T09:15:38.825Z,5.60
2023-05-12T09:18:07.170Z,4.50
2023-05-12T09:20:35.687Z,3.40
2023-05-12T09:23:22.293Z,4.50
2023-05-12T09:26:04.010Z,6.70
2023-05-12T09:28:36.968Z,6.10
2023-05-12T09:31:34.869Z,3.70
2023-05-12T09:34:10.898Z,5.70
2023-05-12T09:36:39.180Z,4.80
2023-05-12T09:39:09.508Z,5.20
2023-05-12T09:41:42.908Z,5.40
2023-05-12T09:44:17.082Z,7.50
2023-05-12T09:46:46.123Z,6.90
2023-05-12T09:49:20.512Z,5.10
2023-05-12T09:51:59.147Z,5.00
2023-05-12T09:54:29.362Z,5.70
2023-05-12T09:57:02.821Z,3.60
2023-05-12T09:59:33.697Z,3.60
2023-05-12T10:02:05.639Z,5.80
2023-05-12T10:04:56.308Z,5.20
2023-05-12T10:07:28.036Z,6.80
2023-05-12T10:10:01.499Z,4.10
2023-05-12T10:12:30.025Z,4.50
2023-05-12T10:14:59.702Z,5.50
2023-05-12T10:17:29.229Z,4.50
2023-05-12T10:19:58.512Z,4.80
2023-05-12T10:22:28.325Z,5.70
2023-05-12T10:24:57.724Z,4.20
2023-05-12T10:27:27.457Z,6.60
2023-05-12T10:29:56.435Z,3.20
2023-05-12T10:34:52.781Z,5.40
2023-05-12T10:37:23.615Z,4.30
2023-05-12T10:39:53.002Z,5.20
2023-05-12T10:42:26.998Z,5.80
2023-05-12T10:44:56.986Z,4.50
2023-05-12T10:47:30.931Z,6.10
2023-05-12T10:50:00.051Z,9.40
2023-05-12T10:55:04.097Z,5.40
2023-05-12T10:57:33.524Z,5.60
2023-05-12T11:00:03.518Z,3.70
2023-05-12T11:02:34.760Z,5.50
2023-05-12T11:05:13.084Z,4.90
2023-05-12T11:07:49.633Z,4.60
2023-05-12T11:10:19.879Z,5.00
2023-05-12T11:12:50.074Z,5.00
2023-05-12T11:15:18.452Z,5.20
2023-05-12T11:17:47.049Z,7.40
2023-05-12T11:20:26.164Z,6.70
2023-05-12T11:22:55.265Z,7.00
2023-05-12T11:25:27.160Z,4.90
2023-05-12T11:27:55.917Z,5.60
2023-05-12T11:30:24.190Z,5.20
2023-05-12T11:33:02.469Z,5.40
2023-05-12T11:35:32.649Z,6.20
2023-05-12T11:38:03.106Z,6.00
2023-05-12T11:40:31.242Z,6.50
2023-05-12T11:43:10.546Z,6.80
2023-05-12T11:45:38.820Z,4.30
2023-05-12T11:48:12.077Z,4.70
2023-05-12T11:50:44.305Z,7.00
2023-05-12T11:53:15.747Z,6.60
2023-05-12T11:55:52.019Z,6.90
2023-05-12T11:58:30.866Z,5.20
2023-05-12T12:01:11.223Z,4.50
2023-05-12T12:03:48.934Z,6.20
2023-05-12T12:06:19.021Z,6.70
2023-05-12T12:08:51.500Z,6.50
2023-05-12T12:11:21.630Z,5.20
2023-05-12T12:13:56.624Z,5.10
2023-05-12T12:16:32.714Z,6.90
2023-05-12T12:19:01.104Z,6.30
2023-05-12T12:21:29.366Z,5.40
2023-05-12T12:23:57.844Z,4.80
2023-05-12T12:26:26.230Z,4.80
2023-05-12T12:28:54.611Z,4.80
2023-05-12T12:31:23.104Z,4.00
2023-05-12T12:33:51.462Z,3.60
2023-05-12T12:36:19.739Z,7.10
2023-05-12T12:38:47.916Z,3.90
2023-05-12T12:41:16.066Z,4.50
2023-05-12T12:43:44.768Z,5.30
2023-05-12T12:46:13.255Z,6.40
2023-05-12T12:48:41.420Z,5.20
2023-05-12T12:51:10.011Z,4.30
2023-05-12T12:53:38.491Z,4.40
2023-05-12T12:56:07.175Z,3.80
2023-05-12T12:58:35.463Z,5.10
2023-05-12T13:01:04.808Z,4.70
2023-05-12T13:06:01.313Z,5.60
2023-05-12T13:08:29.792Z,5.60
2023-05-12T13:10:58.276Z,5.10
2023-05-12T13:13:26.438Z,8.10
2023-05-12T13:15:54.701Z,5.10
2023-05-12T13:18:22.951Z,4.50
2023-05-12T13:20:51.785Z,4.70
2023-05-12T13:23:20.572Z,4.20
2023-05-12T13:25:49.880Z,4.20
2023-05-12T13:28:18.368Z,6.80
2023-05-12T13:30:46.887Z,8.30
2023-05-12T13:33:15.525Z,5.20
2023-05-12T13:35:43.806Z,3.50
2023-05-12T13:38:12.079Z,5.00
2023-05-12T13:40:40.254Z,3.80
2023-05-12T13:43:08.734Z,4.70
2023-05-12T13:45:36.907Z,7.70
2023-05-12T13:48:05.738Z,6.30
2023-05-12T13:50:34.690Z,4.50
2023-05-12T13:53:02.866Z,8.70
2023-05-12T13:55:34.011Z,6.60
2023-05-12T13:58:05.153Z,6.00
2023-05-12T14:00:33.328Z,8.80
2023-05-12T14:03:01.922Z,5.80
2023-05-12T14:05:30.519Z,4.40
2023-05-12T14:07:59.182Z,5.70
2023-05-12T14:10:27.555Z,6.00
2023-05-12T14:12:55.730Z,5.20
2023-05-12T14:15:32.892Z,6.90
2023-05-12T14:18:08.828Z,4.50
2023-05-12T14:20:37.172Z,3.90
2023-05-12T14:23:05.527Z,5.20
2023-05-12T14:25:33.803Z,4.10
2023-05-12T14:28:02.215Z,4.60
2023-05-12T14:30:30.590Z,6.10
2023-05-12T14:32:58.890Z,5.20
2023-05-12T14:35:27.951Z,4.90
2023-05-12T14:37:57.002Z,5.40
2023-05-12T14:40:25.212Z,4.50
2023-05-12T14:42:54.302Z,7.00
2023-05-12T14:45:23.396Z,5.50
2023-05-12T14:47:51.823Z,3.80
2023-05-12T14:50:20.962Z,6.50
2023-05-12T14:52:49.248Z,6.40
2023-05-12T14:55:17.766Z,3.20
2023-05-12T14:57:46.407Z,12.70
2023-05-12T15:00:16.196Z,2.80
2023-05-12T15:02:45.727Z,6.10
2023-05-12T15:05:15.443Z,6.60
2023-05-12T15:07:43.529Z,5.20
2023-05-12T15:10:12.003Z,6.20
2023-05-12T15:12:40.179Z,8.50
2023-05-12T15:15:11.730Z,4.70
2023-05-12T15:17:40.177Z,4.60
2023-05-12T15:20:10.023Z,4.00
2023-05-12T15:22:38.621Z,3.20
2023-05-12T15:25:07.808Z,5.00
2023-05-12T15:27:35.979Z,8.10
2023-05-12T15:30:04.672Z,3.40
2023-05-12T15:32:32.966Z,4.40
2023-05-12T15:35:01.214Z,6.40
2023-05-12T15:37:29.395Z,3.60
2023-05-12T15:39:57.571Z,4.60
2023-05-12T15:42:30.011Z,4.70
2023-05-12T15:47:29.781Z,4.70
2023-05-12T15:49:58.042Z,4.40
2023-05-12T15:52:28.004Z,6.90
2023-05-12T15:54:57.038Z,8.20
2023-05-12T15:57:25.339Z,6.50
2023-05-12T15:59:59.044Z,7.10
2023-05-12T16:02:27.977Z,17.20
2023-05-12T16:04:56.408Z,6.10
2023-05-12T16:07:29.601Z,6.30
2023-05-12T16:09:58.414Z,7.20
2023-05-12T16:12:26.664Z,6.60
2023-05-12T16:14:54.809Z,5.30
2023-05-12T16:17:23.013Z,6.30
2023-05-12T16:19:53.680Z,8.60
2023-05-12T16:22:22.034Z,8.80
2023-05-12T16:24:50.609Z,6.70
2023-05-12T16:27:18.885Z,9.10
2023-05-12T16:29:49.718Z,6.10
2023-05-12T16:32:18.044Z,7.30
2023-05-12T16:34:47.012Z,6.30
2023-05-12T16:37:15.368Z,4.80
2023-05-12T16:39:43.553Z,3.30
2023-05-12T16:42:11.920Z,4.10
2023-05-12T16:44:40.205Z,5.00
2023-05-12T16:47:08.781Z,4.60
2023-05-12T16:49:36.855Z,7.90
2023-05-12T16:52:05.743Z,3.60
2023-05-12T16:54:34.017Z,5.60
2023-05-12T16:57:03.336Z,7.40
2023-05-12T16:59:32.572Z,17.10
2023-05-12T17:02:02.170Z,21.00
2023-05-12T17:04:30.715Z,12.90
2023-05-12T17:06:58.778Z,12.00
2023-05-12T17:09:27.363Z,6.40
2023-05-12T17:11:55.544Z,5.60
2023-05-12T17:14:23.830Z,15.10
2023-05-12T17:16:51.997Z,21.30
2023-05-12T17:19:21.550Z,9.40
2023-05-12T17:21:49.673Z,5.60
2023-05-12T17:24:18.110Z,7.80
2023-05-12T17:26:46.327Z,4.20
2023-05-12T17:29:15.143Z,3.90
2023-05-12T17:31:43.367Z,7.40
2023-05-12T17:34:11.877Z,10.00
2023-05-12T17:36:40.157Z,10.30
2023-05-12T17:39:08.344Z,10.20
2023-05-12T17:41:36.396Z,6.70
2023-05-12T17:44:05.080Z,5.60
2023-05-12T17:46:33.931Z,14.00
2023-05-12T17:49:02.144Z,18.20
2023-05-12T17:51:30.221Z,14.60
2023-05-12T17:53:58.403Z,12.40
2023-05-12T17:56:26.770Z,10.20
2023-05-12T17:58:55.147Z,8.90
2023-05-12T18:01:23.355Z,48.60
2023-05-12T18:03:51.704Z,43.30
2023-05-12T18:06:19.878Z,74.40
2023-05-12T18:08:48.058Z,70.30
2023-05-12T18:11:16.429Z,36.10
2023-05-12T18:13:45.229Z,68.10
2023-05-12T18:16:27.548Z,98.00
2023-05-12T18:18:57.180Z,64.00
2023-05-12T18:21:26.047Z,59.30
2023-05-12T18:23:54.416Z,62.30
2023-05-12T18:26:22.889Z,60.60
2023-05-12T18:28:51.057Z,59.50
2023-05-12T18:31:22.230Z,72.80
2023-05-12T18:33:51.011Z,75.90
2023-05-12T18:36:19.578Z,64.60
2023-05-12T18:38:48.265Z,59.60
2023-05-12T18:41:16.850Z,79.40
2023-05-12T18:43:45.023Z,79.00
2023-05-12T18:46:13.652Z,100.20
2023-05-12T18:48:41.995Z,112.80
2023-05-12T18:51:10.360Z,106.70
2023-05-12T18:53:38.428Z,85.70
2023-05-12T18:56:06.500Z,58.70
2023-05-12T18:58:34.676Z,47.10
2023-05-12T19:01:03.166Z,37.00
2023-05-12T19:03:32.573Z,46.00
2023-05-12T19:06:01.379Z,42.00
2023-05-12T19:08:29.465Z,29.00
2023-05-12T19:10:57.701Z,25.20
2023-05-12T19:13:25.983Z,15.20
2023-05-12T19:15:54.177Z,13.30
2023-05-12T19:18:22.646Z,11.60
2023-05-12T19:20:50.699Z,9.00
2023-05-12T19:23:18.777Z,9.80
2023-05-12T19:25:46.846Z,5.90
2023-05-12T19:28:14.939Z,11.00
2023-05-12T19:30:43.096Z,7.30
2023-05-12T19:33:11.542Z,5.70
2023-05-12T19:35:39.961Z,8.50
2023-05-12T19:38:08.051Z,6.60
2023-05-12T19:40:36.200Z,14.50
2023-05-12T19:43:05.306Z,10.90
2023-05-12T19:45:33.490Z,10.90
2023-05-12T19:48:02.595Z,8.20
2023-05-12T19:50:30.944Z,9.40
2023-05-12T19:52:59.424Z,7.60
2023-05-12T19:55:27.505Z,6.30
2023-05-12T19:57:56.691Z,6.10
2023-05-12T20:00:26.812Z,10.50
2023-05-12T20:02:55.043Z,8.80
2023-05-12T20:05:23.570Z,12.20
2023-05-12T20:07:52.383Z,8.50
2023-05-12T20:10:20.847Z,14.50
2023-05-12T20:12:48.916Z,15.50
2023-05-12T20:15:18.788Z,20.30
2023-05-12T20:17:47.086Z,18.80
2023-05-12T20:20:15.285Z,34.50
2023-05-12T20:22:43.454Z,43.40
2023-05-12T20:25:16.152Z,25.70
2023-05-12T20:27:45.334Z,21.90
2023-05-12T20:30:13.923Z,18.30
2023-05-12T20:32:42.249Z,19.90
2023-05-12T20:35:10.466Z,19.60
2023-05-12T20:37:40.793Z,12.80
2023-05-12T20:40:10.901Z,13.70
2023-05-12T20:42:39.087Z,11.80
2023-05-12T20:45:08.093Z,18.20
2023-05-12T20:47:37.526Z,33.00
2023-05-12T20:52:39.669Z,23.20
2023-05-12T20:55:09.267Z,19.70
2023-05-12T21:00:10.493Z,12.00
2023-05-12T21:02:38.781Z,15.50
2023-05-12T21:05:08.021Z,9.20
2023-05-12T21:07:36.599Z,10.00
2023-05-12T21:10:05.267Z,7.50
2023-05-12T21:12:33.673Z,7.10
2023-05-12T21:15:02.042Z,11.10
2023-05-12T21:17:30.042Z,7.00
2023-05-12T21:19:58.180Z,8.30
2023-05-12T21:22:26.977Z,6.90
2023-05-12T21:24:55.248Z,7.50
2023-05-12T21:27:23.533Z,7.50
2023-05-12T21:29:51.695Z,8.70
2023-05-12T21:32:19.771Z,9.50
2023-05-12T21:34:47.948Z,6.90
2023-05-12T21:37:16.633Z,9.70
2023-05-12T21:39:44.807Z,11.80
2023-05-12T21:42:12.979Z,8.00
2023-05-12T21:44:41.157Z,8.00
2023-05-12T21:47:09.839Z,8.20
2023-05-12T21:49:38.013Z,8.50
2023-05-12T21:52:06.699Z,6.30
2023-05-12T21:54:35.176Z,7.90
2023-05-12T21:57:03.358Z,8.00
2023-05-12T21:59:31.731Z,11.60
2023-05-12T22:02:00.416Z,12.00
2023-05-12T22:04:28.703Z,18.20
2023-05-12T22:06:57.101Z,16.20
2023-05-12T22:09:25.451Z,12.80
2023-05-12T22:11:53.942Z,12.60
2023-05-12T22:14:22.320Z,9.20
2023-05-12T22:16:50.630Z,7.00
2023-05-12T22:19:19.682Z,10.20
2023-05-12T22:21:47.970Z,8.70
2023-05-12T22:24:16.460Z,10.10
2023-05-12T22:26:44.627Z,10.80
2023-05-12T22:29:12.801Z,6.50
2023-05-12T22:31:42.620Z,5.50
2023-05-12T22:34:10.889Z,5.20
2023-05-12T22:36:38.984Z,6.50
2023-05-12T22:39:08.153Z,8.40
2023-05-12T22:41:36.638Z,7.50
2023-05-12T22:44:05.323Z,5.90
2023-05-12T22:46:33.507Z,6.50
2023-05-12T22:49:01.672Z,5.70
2023-05-12T22:51:29.847Z,5.40
2023-05-12T22:53:58.020Z,9.70
2023-05-12T22:56:26.712Z,8.20
2023-05-12T22:58:54.891Z,8.00
2023-05-12T23:01:23.050Z,9.70
2023-05-12T23:03:51.254Z,12.90
2023-05-12T23:06:19.408Z,13.30
2023-05-12T23:08:47.997Z,13.30
2023-05-12T23:11:16.177Z,12.10
2023-05-12T23:13:44.544Z,9.00
2023-05-12T23:16:12.962Z,11.00
2023-05-12T23:18:41.551Z,9.40
2023-05-12T23:21:09.779Z,10.20
2023-05-12T23:23:38.068Z,7.50
2023-05-12T23:26:06.333Z,7.00
2023-05-12T23:28:34.508Z,7.50
2023-05-12T23:31:03.708Z,10.30
2023-05-12T23:33:32.163Z,8.20
2023-05-12T23:36:00.463Z,10.60
2023-05-12T23:38:28.639Z,10.50
2023-05-12T23:40:56.812Z,9.40
2023-05-12T23:43:24.987Z,10.30
2023-05-12T23:45:53.401Z,13.40
2023-05-12T23:48:21.639Z,6.90
2023-05-12T23:50:49.812Z,8.00
2023-05-12T23:53:17.883Z,9.10
2023-05-12T23:55:46.171Z,5.90
2023-05-12T23:58:14.237Z,6.20
